Aérodrome :
LOGIN :

S'inscrire | Disclaimer

   EN    FR    IT 

 










Légende :    VFR   VFR Marginal   IFR   IFR Intensif   IFR Très Intensif
Visi : 
Plafond : 
>= 8 km
>= 3000ft
5 à 8 km
1000 à 3000 ft
1500m à 5 km
500 à 1000 ft
800 à 1500m
200 à 500 ft
< 800m
< 200 ft
Symboles :   Orages  Brouillard  Fortes neiges  Fortes précipitations  Vent > 20 kt
SIGMETs :   Divers  Orages  Givrage  Turbulence  Onde Orograph.  Cendres Volcan.







- Altitude de l'aérodrome : 3 ft
- Code IATA : LWR


EHLW - Leuuwarden Air Base

DERNIER METAR :
  • 280644Z AUTO 10014KT 030V160 9999 FEW008 OVC100 16/14 Q0997 BLU 09014KT 9999 FEW008 BKN027 TEMPO 5000 -SHRA SCT008 SCT020CB BKN025

METARs EXPIRÉS :
  • 280625Z AUTO 09014KT 030V170 9999 FEW008 OVC026 15/14 Q0997 BLU 09014KT 9999 FEW008 OVC027 TEMPO 5000 -SHRA SCT008 SCT020CB BKN025
  • 280556Z AUTO 09012KT 040V170 9999 FEW007 OVC027 15/14 Q0998 BLU
  • 280541Z AUTO 09013KT 020V170 9999 FEW005 SCT007 BKN008 15/15 Q0998 GRN
  • 280540Z AUTO 09013KT 360V170 9999 FEW005 SCT006 BKN008 15/14 Q0998 YLO
  • 280525Z AUTO 09013KT 030V140 9999 FEW005 BKN006 BKN008 15/14 Q0998 YLO
  • 280455Z AUTO 09013KT 030V150 9999 SCT005 BKN006 BKN008 FEW015CB 15/14 Q0998 YLO
  • 280442Z AUTO 08013KT 030V140 9999 FEW004 SCT005 BKN007 FEW015CB 15/14 Q0998 YLO
  • 280426Z AUTO 08012KT 010V130 8000 -RA FEW004 SCT005 BKN008 FEW015CB 15/14 Q0999 YLO
  • 280415Z AUTO 08013KT 030V120 4500 RA FEW005 SCT006 BKN008 FEW015CB 15/14 Q0999 YLO
  • 280410Z AUTO 08012KT 010V120 9999 -RA FEW006 SCT007 BKN009 FEW015CB 15/14 Q0999 GRN
  • 280402Z AUTO 09012KT 020V130 7000 DZRA FEW004 FEW015CB SCT016 BKN019 15/15 Q0999 WHT
  • 280358Z AUTO 08012KT 020V130 8000 -DZ FEW004 SCT007 FEW015CB BKN016 15/15 Q0999 GRN
  • 280344Z AUTO 08012KT 010V130 7000 DZRA FEW004 SCT006 BKN008 FEW015CB 15/15 Q0999 YLO

TAF TAF EHLW
Valide du 28 à 01h jusqu'au 28 à 13h UTC


280000Z 2801/2813 09012KT 9999 FEW030 SCT040 BKN060
PROB40
TEMPO 2801/2805 SCT022 SCT035CB
TEMPO 2806/2813 4000 SHRA TSRA SCT025CB
Pas de NOTAMs connus pour ce terrain.



MET'MAP, la Météo Aéronautique d'un coup d'oeil ! - Copyright ORBIFLY Décembre 2007 - Disclaimer

ORBIFLY MET'MAP TEAM :

Programmation & Développement : Alexandra Zaïnal
Conception & Développement : Baudouin d'Aumeries
Co-Programmation & Développement : Marc-Olivier Méhu
Soutien technique & logistique : Manuel Goepfert

Contact : metmap@orbifly.com




SOURCES & CREDITS :

   NOAA